Jacksonville, Texas
Current Conditions -  °F | °C
As of 4:10 PM on Monday 20 Oct 2014 (Local Time) from KJSO Reporting Station
Clear Clear  
Wind Chill: 25°   Ceiling: Unl
Heat Index: 26°   Visibility: 10mi
Dew Point: 13°   Wind: 6mph
Humidity: 47%   Direction: 100°E
Pressure: 30.05"   Gusts: NA
Location:  31.96°N, 95.27°W
Report Text: KJSO 202110Z AUTO 10005KT 10SM CLR 25/12 A3005 RMK AO2 T02510129
Loading
Personal Weather Stations






























Interactive Weather Map
Tropical Storm Tracking
New forecast layout! Learn more

10-Day Weather Forecast

Advertisements
Track Severe Weather on mobile